KLBL/LBL METAR and TAF weather

Enter ICAO airport designator
Station Type Date Time Source
KLBL METAR 2020/01/28 04:56 UTC NOAA

KLBL 280456Z AUTO 03013KT 5SM -RA BR OVC006 02/01 A2996 RMK AO2 UPB51E53 CIG 004V009 SLP151 P0004 T00170006 401391044 FZRANO


Station Type Date Time Source
KLBL Decoded METAR 2020/01/28 04:56 UTC NOAA

Liberal, Liberal Municipal Airport, KS, United States (KLBL) 37-03N 100-58W
Jan 27, 2020 - 11:56 PM EST / 2020.01.28 0456 UTC
Wind: from the NNE (030 degrees) at 15 MPH (13 KT):0
Visibility: 5 mile(s):0
Sky conditions: overcast
Weather: light rain; mist
Precipitation last hour: 0.04 inches
Temperature: 35.1 F (1.7 C)
Dew Point: 33.1 F (0.6 C)
Relative Humidity: 92%
Pressure (altimeter): 29.96 in. Hg (1014 hPa)
ob: KLBL 280456Z AUTO 03013KT 5SM -RA BR OVC006 02/01 A2996 RMK AO2 UPB51E53 CIG 004V009 SLP151 P0004 T00170006 401391044 FZRANO
cycle: 5

Station Type Date Time Source
KLBL TAF 2020/01/28 05:03 UTC NOAA

TAF
AMD KLBL 280502Z 2805/2824 03013KT 5SM -RA BR OVC006
FM280700 02019KT 1 1/2SM -SN OVC005
TEMPO 2807/2811 1/4SM +SN
FM281200 36018G26KT 1SM -SN OVC007
FM281900 35018KT 3SM BR BKN014

Example: see airport list